sensor_id;sensor_type;location;lat;lon;timestamp;P1;durP1;ratioP1;P2;durP2;ratioP2
65853;SDS011;52627;48.838;2.402;2023-12-29T00:01:36;12.00;;;2.70;;
65853;SDS011;52627;48.838;2.402;2023-12-29T00:04:03;11.20;;;2.50;;
65853;SDS011;52627;48.838;2.402;2023-12-29T00:06:30;6.60;;;1.80;;
65853;SDS011;52627;48.838;2.402;2023-12-29T00:08:57;11.70;;;2.70;;
65853;SDS011;52627;48.838;2.402;2023-12-29T00:11:23;8.70;;;2.40;;
65853;SDS011;52627;48.838;2.402;2023-12-29T00:13:50;10.60;;;2.50;;
65853;SDS011;52627;48.838;2.402;2023-12-29T00:16:17;9.50;;;2.40;;
65853;SDS011;52627;48.838;2.402;2023-12-29T00:18:44;11.10;;;2.30;;
65853;SDS011;52627;48.838;2.402;2023-12-29T00:21:11;10.70;;;2.20;;
65853;SDS011;52627;48.838;2.402;2023-12-29T00:23:38;8.60;;;2.10;;
65853;SDS011;52627;48.838;2.402;2023-12-29T00:26:05;10.20;;;2.20;;
65853;SDS011;52627;48.838;2.402;2023-12-29T00:28:31;11.70;;;2.50;;
65853;SDS011;52627;48.838;2.402;2023-12-29T00:30:58;13.50;;;2.80;;
65853;SDS011;52627;48.838;2.402;2023-12-29T00:33:29;8.20;;;2.20;;
65853;SDS011;52627;48.838;2.402;2023-12-29T00:35:58;11.60;;;2.30;;
65853;SDS011;52627;48.838;2.402;2023-12-29T00:38:26;8.20;;;2.10;;
65853;SDS011;52627;48.838;2.402;2023-12-29T00:40:57;12.60;;;2.10;;
65853;SDS011;52627;48.838;2.402;2023-12-29T00:43:23;12.20;;;2.10;;
65853;SDS011;52627;48.838;2.402;2023-12-29T00:45:50;10.30;;;1.80;;
65853;SDS011;52627;48.838;2.402;2023-12-29T00:48:17;6.60;;;1.90;;
65853;SDS011;52627;48.838;2.402;2023-12-29T00:50:44;11.20;;;2.10;;
65853;SDS011;52627;48.838;2.402;2023-12-29T00:53:11;10.50;;;2.20;;
65853;SDS011;52627;48.838;2.402;2023-12-29T00:55:38;13.50;;;2.30;;
65853;SDS011;52627;48.838;2.402;2023-12-29T00:58:04;8.20;;;2.00;;
65853;SDS011;52627;48.838;2.402;2023-12-29T01:00:32;9.40;;;2.20;;
65853;SDS011;52627;48.838;2.402;2023-12-29T01:02:59;13.70;;;2.30;;
65853;SDS011;52627;48.838;2.402;2023-12-29T01:05:26;10.30;;;2.30;;
65853;SDS011;52627;48.838;2.402;2023-12-29T01:07:54;11.40;;;1.90;;
65853;SDS011;52627;48.838;2.402;2023-12-29T01:10:21;8.50;;;1.80;;
65853;SDS011;52627;48.838;2.402;2023-12-29T01:12:48;8.90;;;2.40;;
65853;SDS011;52627;48.838;2.402;2023-12-29T01:15:15;14.30;;;2.30;;
65853;SDS011;52627;48.838;2.402;2023-12-29T01:17:42;13.30;;;1.90;;
65853;SDS011;52627;48.838;2.402;2023-12-29T01:20:09;12.30;;;2.10;;
65853;SDS011;52627;48.838;2.402;2023-12-29T01:22:36;11.40;;;2.50;;
65853;SDS011;52627;48.838;2.402;2023-12-29T01:25:03;11.30;;;1.90;;
65853;SDS011;52627;48.838;2.402;2023-12-29T01:27:30;12.20;;;2.40;;
65853;SDS011;52627;48.838;2.402;2023-12-29T01:29:57;12.30;;;2.20;;
65853;SDS011;52627;48.838;2.402;2023-12-29T01:32:24;8.70;;;2.10;;
65853;SDS011;52627;48.838;2.402;2023-12-29T01:34:52;7.40;;;1.70;;
65853;SDS011;52627;48.838;2.402;2023-12-29T01:37:19;9.40;;;2.00;;
65853;SDS011;52627;48.838;2.402;2023-12-29T01:39:46;9.50;;;2.10;;
65853;SDS011;52627;48.838;2.402;2023-12-29T01:42:13;11.00;;;2.50;;
65853;SDS011;52627;48.838;2.402;2023-12-29T01:44:40;12.10;;;2.20;;
65853;SDS011;52627;48.838;2.402;2023-12-29T01:47:16;9.60;;;2.40;;
65853;SDS011;52627;48.838;2.402;2023-12-29T01:49:45;15.70;;;2.30;;
65853;SDS011;52627;48.838;2.402;2023-12-29T01:52:13;8.20;;;2.50;;
65853;SDS011;52627;48.838;2.402;2023-12-29T01:54:42;11.20;;;2.20;;
65853;SDS011;52627;48.838;2.402;2023-12-29T01:57:11;13.20;;;2.70;;
65853;SDS011;52627;48.838;2.402;2023-12-29T01:59:38;10.20;;;1.70;;
65853;SDS011;52627;48.838;2.402;2023-12-29T02:02:05;12.10;;;2.40;;
65853;SDS011;52627;48.838;2.402;2023-12-29T02:04:33;16.50;;;2.40;;
65853;SDS011;52627;48.838;2.402;2023-12-29T02:07:00;11.30;;;1.90;;
65853;SDS011;52627;48.838;2.402;2023-12-29T02:09:27;10.60;;;1.80;;
65853;SDS011;52627;48.838;2.402;2023-12-29T02:11:54;7.10;;;1.90;;
65853;SDS011;52627;48.838;2.402;2023-12-29T02:14:21;9.90;;;1.90;;
65853;SDS011;52627;48.838;2.402;2023-12-29T02:17:09;10.10;;;2.10;;
65853;SDS011;52627;48.838;2.402;2023-12-29T02:19:41;11.20;;;2.10;;
65853;SDS011;52627;48.838;2.402;2023-12-29T02:22:14;11.40;;;2.00;;
65853;SDS011;52627;48.838;2.402;2023-12-29T02:24:48;14.60;;;2.10;;
65853;SDS011;52627;48.838;2.402;2023-12-29T02:30:05;11.80;;;2.10;;
65853;SDS011;52627;48.838;2.402;2023-12-29T02:32:34;8.70;;;1.90;;
65853;SDS011;52627;48.838;2.402;2023-12-29T02:35:03;8.80;;;1.80;;
65853;SDS011;52627;48.838;2.402;2023-12-29T02:37:31;9.30;;;1.90;;
65853;SDS011;52627;48.838;2.402;2023-12-29T02:39:58;9.30;;;2.10;;
65853;SDS011;52627;48.838;2.402;2023-12-29T02:42:25;10.20;;;2.00;;
65853;SDS011;52627;48.838;2.402;2023-12-29T02:44:52;12.20;;;1.90;;
65853;SDS011;52627;48.838;2.402;2023-12-29T02:47:19;10.30;;;2.60;;
65853;SDS011;52627;48.838;2.402;2023-12-29T02:49:47;11.80;;;2.60;;
65853;SDS011;52627;48.838;2.402;2023-12-29T02:52:16;8.20;;;2.10;;
65853;SDS011;52627;48.838;2.402;2023-12-29T02:54:43;12.40;;;2.90;;
65853;SDS011;52627;48.838;2.402;2023-12-29T02:57:09;11.70;;;2.30;;
65853;SDS011;52627;48.838;2.402;2023-12-29T02:59:36;12.80;;;2.40;;
65853;SDS011;52627;48.838;2.402;2023-12-29T03:02:04;10.10;;;2.10;;
65853;SDS011;52627;48.838;2.402;2023-12-29T03:04:30;17.50;;;3.20;;
65853;SDS011;52627;48.838;2.402;2023-12-29T03:06:57;11.70;;;2.10;;
65853;SDS011;52627;48.838;2.402;2023-12-29T03:09:24;11.40;;;2.40;;
65853;SDS011;52627;48.838;2.402;2023-12-29T03:11:51;12.10;;;2.30;;
65853;SDS011;52627;48.838;2.402;2023-12-29T03:14:17;12.10;;;2.40;;
65853;SDS011;52627;48.838;2.402;2023-12-29T03:16:44;13.10;;;2.50;;
65853;SDS011;52627;48.838;2.402;2023-12-29T03:19:11;11.70;;;2.80;;
65853;SDS011;52627;48.838;2.402;2023-12-29T03:21:38;14.60;;;3.00;;
65853;SDS011;52627;48.838;2.402;2023-12-29T03:24:05;11.10;;;2.70;;
65853;SDS011;52627;48.838;2.402;2023-12-29T03:26:32;11.80;;;2.20;;
65853;SDS011;52627;48.838;2.402;2023-12-29T03:28:59;14.90;;;2.90;;
65853;SDS011;52627;48.838;2.402;2023-12-29T03:31:26;8.20;;;2.50;;
65853;SDS011;52627;48.838;2.402;2023-12-29T03:33:53;21.20;;;3.60;;
65853;SDS011;52627;48.838;2.402;2023-12-29T03:36:20;14.30;;;2.80;;
65853;SDS011;52627;48.838;2.402;2023-12-29T03:38:46;14.00;;;3.60;;
65853;SDS011;52627;48.838;2.402;2023-12-29T03:41:13;16.20;;;3.20;;
65853;SDS011;52627;48.838;2.402;2023-12-29T03:43:40;11.80;;;3.80;;
65853;SDS011;52627;48.838;2.402;2023-12-29T03:46:20;16.70;;;4.40;;
65853;SDS011;52627;48.838;2.402;2023-12-29T03:48:48;9.90;;;2.80;;
65853;SDS011;52627;48.838;2.402;2023-12-29T03:51:15;18.10;;;3.60;;
65853;SDS011;52627;48.838;2.402;2023-12-29T03:53:43;18.90;;;3.50;;
65853;SDS011;52627;48.838;2.402;2023-12-29T03:56:15;12.00;;;2.90;;
65853;SDS011;52627;48.838;2.402;2023-12-29T03:58:44;11.60;;;3.30;;
65853;SDS011;52627;48.838;2.402;2023-12-29T04:01:13;12.70;;;2.20;;
65853;SDS011;52627;48.838;2.402;2023-12-29T04:03:40;10.60;;;2.40;;
65853;SDS011;52627;48.838;2.402;2023-12-29T04:06:08;12.40;;;2.10;;
65853;SDS011;52627;48.838;2.402;2023-12-29T04:08:36;9.10;;;1.90;;
65853;SDS011;52627;48.838;2.402;2023-12-29T04:11:04;11.40;;;2.10;;
65853;SDS011;52627;48.838;2.402;2023-12-29T04:13:31;14.30;;;3.20;;
65853;SDS011;52627;48.838;2.402;2023-12-29T04:15:58;14.20;;;2.80;;
65853;SDS011;52627;48.838;2.402;2023-12-29T04:18:25;10.00;;;2.50;;
65853;SDS011;52627;48.838;2.402;2023-12-29T04:20:52;12.40;;;3.30;;
65853;SDS011;52627;48.838;2.402;2023-12-29T04:23:18;14.90;;;2.40;;
65853;SDS011;52627;48.838;2.402;2023-12-29T04:25:45;15.30;;;3.20;;
65853;SDS011;52627;48.838;2.402;2023-12-29T04:28:12;7.40;;;2.20;;
65853;SDS011;52627;48.838;2.402;2023-12-29T04:30:39;13.10;;;2.80;;
65853;SDS011;52627;48.838;2.402;2023-12-29T04:33:06;10.20;;;2.60;;
65853;SDS011;52627;48.838;2.402;2023-12-29T04:35:33;12.90;;;2.50;;
65853;SDS011;52627;48.838;2.402;2023-12-29T04:38:00;7.40;;;1.90;;
65853;SDS011;52627;48.838;2.402;2023-12-29T04:40:27;9.10;;;2.60;;
65853;SDS011;52627;48.838;2.402;2023-12-29T04:42:54;13.70;;;2.50;;
65853;SDS011;52627;48.838;2.402;2023-12-29T04:45:21;11.30;;;2.50;;
65853;SDS011;52627;48.838;2.402;2023-12-29T04:47:47;10.10;;;2.30;;
65853;SDS011;52627;48.838;2.402;2023-12-29T04:50:14;11.60;;;2.20;;
65853;SDS011;52627;48.838;2.402;2023-12-29T04:52:41;9.30;;;1.80;;
65853;SDS011;52627;48.838;2.402;2023-12-29T04:55:08;12.60;;;2.10;;
65853;SDS011;52627;48.838;2.402;2023-12-29T04:57:35;12.80;;;2.60;;
65853;SDS011;52627;48.838;2.402;2023-12-29T05:00:02;13.90;;;2.20;;
65853;SDS011;52627;48.838;2.402;2023-12-29T05:02:31;14.60;;;2.20;;
65853;SDS011;52627;48.838;2.402;2023-12-29T05:04:57;11.00;;;1.90;;
65853;SDS011;52627;48.838;2.402;2023-12-29T05:07:24;13.20;;;2.20;;
65853;SDS011;52627;48.838;2.402;2023-12-29T05:09:51;10.20;;;1.80;;
65853;SDS011;52627;48.838;2.402;2023-12-29T05:12:18;13.30;;;2.10;;
65853;SDS011;52627;48.838;2.402;2023-12-29T05:14:45;12.00;;;2.10;;
65853;SDS011;52627;48.838;2.402;2023-12-29T05:17:11;11.00;;;1.90;;
65853;SDS011;52627;48.838;2.402;2023-12-29T05:19:38;10.10;;;2.60;;
65853;SDS011;52627;48.838;2.402;2023-12-29T05:22:05;11.90;;;2.80;;
65853;SDS011;52627;48.838;2.402;2023-12-29T05:24:32;12.30;;;2.40;;
65853;SDS011;52627;48.838;2.402;2023-12-29T05:26:59;7.80;;;1.80;;
65853;SDS011;52627;48.838;2.402;2023-12-29T05:29:26;7.20;;;1.90;;
65853;SDS011;52627;48.838;2.402;2023-12-29T05:31:52;11.90;;;2.30;;
65853;SDS011;52627;48.838;2.402;2023-12-29T05:34:19;8.70;;;1.80;;
65853;SDS011;52627;48.838;2.402;2023-12-29T05:36:46;11.20;;;2.00;;
65853;SDS011;52627;48.838;2.402;2023-12-29T05:39:16;10.80;;;2.20;;
65853;SDS011;52627;48.838;2.402;2023-12-29T05:41:43;10.10;;;1.80;;
65853;SDS011;52627;48.838;2.402;2023-12-29T05:44:10;11.90;;;2.30;;
65853;SDS011;52627;48.838;2.402;2023-12-29T05:46:37;14.30;;;2.20;;
65853;SDS011;52627;48.838;2.402;2023-12-29T05:49:03;8.90;;;2.50;;
65853;SDS011;52627;48.838;2.402;2023-12-29T05:51:30;8.70;;;1.80;;
65853;SDS011;52627;48.838;2.402;2023-12-29T05:53:57;14.20;;;3.20;;
65853;SDS011;52627;48.838;2.402;2023-12-29T05:56:24;12.70;;;2.50;;
65853;SDS011;52627;48.838;2.402;2023-12-29T05:58:52;9.50;;;1.70;;
65853;SDS011;52627;48.838;2.402;2023-12-29T06:01:19;13.20;;;1.90;;
65853;SDS011;52627;48.838;2.402;2023-12-29T06:03:46;10.30;;;2.40;;
65853;SDS011;52627;48.838;2.402;2023-12-29T06:06:14;11.40;;;2.20;;
65853;SDS011;52627;48.838;2.402;2023-12-29T06:08:41;10.80;;;1.90;;
65853;SDS011;52627;48.838;2.402;2023-12-29T06:11:07;10.70;;;1.90;;
65853;SDS011;52627;48.838;2.402;2023-12-29T06:13:34;8.50;;;1.60;;
65853;SDS011;52627;48.838;2.402;2023-12-29T06:16:01;10.40;;;2.00;;
65853;SDS011;52627;48.838;2.402;2023-12-29T06:18:28;9.10;;;1.40;;
65853;SDS011;52627;48.838;2.402;2023-12-29T06:20:55;12.30;;;2.40;;
65853;SDS011;52627;48.838;2.402;2023-12-29T06:23:22;11.90;;;1.70;;
65853;SDS011;52627;48.838;2.402;2023-12-29T06:25:49;11.70;;;2.70;;
65853;SDS011;52627;48.838;2.402;2023-12-29T06:28:16;14.10;;;2.60;;
65853;SDS011;52627;48.838;2.402;2023-12-29T06:30:43;9.60;;;1.70;;
65853;SDS011;52627;48.838;2.402;2023-12-29T06:33:10;9.90;;;1.40;;
65853;SDS011;52627;48.838;2.402;2023-12-29T06:35:37;10.20;;;2.00;;
65853;SDS011;52627;48.838;2.402;2023-12-29T06:38:05;10.40;;;1.70;;
65853;SDS011;52627;48.838;2.402;2023-12-29T06:40:32;8.80;;;2.10;;
65853;SDS011;52627;48.838;2.402;2023-12-29T06:42:59;13.90;;;2.20;;
65853;SDS011;52627;48.838;2.402;2023-12-29T06:45:26;9.50;;;1.90;;
65853;SDS011;52627;48.838;2.402;2023-12-29T06:47:53;11.70;;;1.90;;
65853;SDS011;52627;48.838;2.402;2023-12-29T06:50:20;11.00;;;2.00;;
65853;SDS011;52627;48.838;2.402;2023-12-29T06:52:46;11.20;;;1.90;;
65853;SDS011;52627;48.838;2.402;2023-12-29T06:55:13;7.80;;;1.50;;
65853;SDS011;52627;48.838;2.402;2023-12-29T06:57:40;11.50;;;2.10;;
65853;SDS011;52627;48.838;2.402;2023-12-29T07:00:07;8.40;;;2.00;;
65853;SDS011;52627;48.838;2.402;2023-12-29T07:02:37;11.00;;;1.60;;
65853;SDS011;52627;48.838;2.402;2023-12-29T07:05:06;11.00;;;1.80;;
65853;SDS011;52627;48.838;2.402;2023-12-29T07:07:35;6.70;;;1.70;;
65853;SDS011;52627;48.838;2.402;2023-12-29T07:10:04;8.20;;;2.00;;
65853;SDS011;52627;48.838;2.402;2023-12-29T07:12:32;6.60;;;1.70;;
65853;SDS011;52627;48.838;2.402;2023-12-29T07:14:59;8.70;;;1.60;;
65853;SDS011;52627;48.838;2.402;2023-12-29T07:17:26;8.10;;;1.60;;
65853;SDS011;52627;48.838;2.402;2023-12-29T07:19:53;13.50;;;2.00;;
65853;SDS011;52627;48.838;2.402;2023-12-29T07:22:19;8.50;;;1.60;;
65853;SDS011;52627;48.838;2.402;2023-12-29T07:24:46;9.20;;;1.90;;
65853;SDS011;52627;48.838;2.402;2023-12-29T07:27:13;12.60;;;1.60;;
65853;SDS011;52627;48.838;2.402;2023-12-29T07:29:40;11.10;;;1.70;;
65853;SDS011;52627;48.838;2.402;2023-12-29T07:32:07;11.40;;;1.90;;
65853;SDS011;52627;48.838;2.402;2023-12-29T07:34:34;7.00;;;1.30;;
65853;SDS011;52627;48.838;2.402;2023-12-29T07:37:01;7.30;;;1.60;;
65853;SDS011;52627;48.838;2.402;2023-12-29T07:39:28;6.40;;;1.50;;
65853;SDS011;52627;48.838;2.402;2023-12-29T07:41:55;8.60;;;1.50;;
65853;SDS011;52627;48.838;2.402;2023-12-29T07:44:22;7.00;;;1.50;;
65853;SDS011;52627;48.838;2.402;2023-12-29T07:46:48;10.20;;;1.80;;
65853;SDS011;52627;48.838;2.402;2023-12-29T07:49:15;8.10;;;2.20;;
65853;SDS011;52627;48.838;2.402;2023-12-29T07:51:46;8.10;;;1.30;;
65853;SDS011;52627;48.838;2.402;2023-12-29T07:54:13;7.00;;;1.50;;
65853;SDS011;52627;48.838;2.402;2023-12-29T07:56:40;7.30;;;1.50;;
65853;SDS011;52627;48.838;2.402;2023-12-29T07:59:06;8.40;;;1.70;;
65853;SDS011;52627;48.838;2.402;2023-12-29T08:01:33;7.30;;;1.80;;
65853;SDS011;52627;48.838;2.402;2023-12-29T08:04:01;9.60;;;1.60;;
65853;SDS011;52627;48.838;2.402;2023-12-29T08:06:27;6.50;;;2.30;;
65853;SDS011;52627;48.838;2.402;2023-12-29T08:08:54;9.20;;;1.40;;
65853;SDS011;52627;48.838;2.402;2023-12-29T08:11:22;7.70;;;1.60;;
65853;SDS011;52627;48.838;2.402;2023-12-29T08:13:48;9.00;;;1.80;;
65853;SDS011;52627;48.838;2.402;2023-12-29T08:16:16;8.10;;;1.60;;
65853;SDS011;52627;48.838;2.402;2023-12-29T08:18:47;5.60;;;1.60;;
65853;SDS011;52627;48.838;2.402;2023-12-29T08:21:17;10.70;;;1.80;;
65853;SDS011;52627;48.838;2.402;2023-12-29T08:23:46;10.50;;;2.00;;
65853;SDS011;52627;48.838;2.402;2023-12-29T08:26:14;10.30;;;2.50;;
65853;SDS011;52627;48.838;2.402;2023-12-29T08:28:41;13.60;;;2.90;;
65853;SDS011;52627;48.838;2.402;2023-12-29T08:31:08;7.30;;;1.90;;
65853;SDS011;52627;48.838;2.402;2023-12-29T08:33:35;7.70;;;1.60;;
65853;SDS011;52627;48.838;2.402;2023-12-29T08:36:03;7.40;;;1.80;;
65853;SDS011;52627;48.838;2.402;2023-12-29T08:38:30;8.80;;;2.60;;
65853;SDS011;52627;48.838;2.402;2023-12-29T08:41:00;8.90;;;2.70;;
65853;SDS011;52627;48.838;2.402;2023-12-29T08:43:27;11.10;;;3.10;;
65853;SDS011;52627;48.838;2.402;2023-12-29T08:45:54;12.20;;;2.30;;
65853;SDS011;52627;48.838;2.402;2023-12-29T08:48:21;7.40;;;2.20;;
65853;SDS011;52627;48.838;2.402;2023-12-29T08:50:49;9.20;;;2.30;;
65853;SDS011;52627;48.838;2.402;2023-12-29T08:53:17;6.20;;;1.50;;
65853;SDS011;52627;48.838;2.402;2023-12-29T08:55:44;8.60;;;2.50;;
65853;SDS011;52627;48.838;2.402;2023-12-29T08:58:12;10.50;;;2.00;;
65853;SDS011;52627;48.838;2.402;2023-12-29T09:00:39;9.90;;;1.70;;
65853;SDS011;52627;48.838;2.402;2023-12-29T09:03:06;6.80;;;1.80;;
65853;SDS011;52627;48.838;2.402;2023-12-29T09:05:33;12.20;;;2.10;;
65853;SDS011;52627;48.838;2.402;2023-12-29T09:07:59;6.30;;;2.00;;
65853;SDS011;52627;48.838;2.402;2023-12-29T09:10:27;9.60;;;1.90;;
65853;SDS011;52627;48.838;2.402;2023-12-29T09:12:54;12.00;;;2.00;;
65853;SDS011;52627;48.838;2.402;2023-12-29T09:15:21;7.00;;;1.80;;
65853;SDS011;52627;48.838;2.402;2023-12-29T09:17:48;8.80;;;2.20;;
65853;SDS011;52627;48.838;2.402;2023-12-29T09:20:16;10.40;;;2.60;;
65853;SDS011;52627;48.838;2.402;2023-12-29T09:22:43;9.80;;;1.90;;
65853;SDS011;52627;48.838;2.402;2023-12-29T09:25:10;11.60;;;2.00;;
65853;SDS011;52627;48.838;2.402;2023-12-29T09:27:37;9.20;;;1.70;;
65853;SDS011;52627;48.838;2.402;2023-12-29T09:30:04;10.00;;;1.60;;
65853;SDS011;52627;48.838;2.402;2023-12-29T09:32:32;6.90;;;1.80;;
65853;SDS011;52627;48.838;2.402;2023-12-29T09:34:58;7.20;;;1.90;;
65853;SDS011;52627;48.838;2.402;2023-12-29T09:37:25;8.90;;;1.70;;
65853;SDS011;52627;48.838;2.402;2023-12-29T09:39:52;8.20;;;1.50;;
65853;SDS011;52627;48.838;2.402;2023-12-29T09:42:22;11.70;;;1.90;;
65853;SDS011;52627;48.838;2.402;2023-12-29T09:44:51;8.70;;;2.20;;
65853;SDS011;52627;48.838;2.402;2023-12-29T09:47:22;9.70;;;2.00;;
65853;SDS011;52627;48.838;2.402;2023-12-29T09:49:51;6.50;;;1.40;;
65853;SDS011;52627;48.838;2.402;2023-12-29T09:52:22;10.90;;;1.90;;
65853;SDS011;52627;48.838;2.402;2023-12-29T09:54:52;10.30;;;1.80;;
65853;SDS011;52627;48.838;2.402;2023-12-29T09:57:19;8.80;;;1.70;;
65853;SDS011;52627;48.838;2.402;2023-12-29T09:59:49;6.20;;;1.40;;
65853;SDS011;52627;48.838;2.402;2023-12-29T10:02:20;8.30;;;1.80;;
65853;SDS011;52627;48.838;2.402;2023-12-29T10:07:26;9.30;;;1.60;;
65853;SDS011;52627;48.838;2.402;2023-12-29T10:09:58;8.40;;;1.80;;
65853;SDS011;52627;48.838;2.402;2023-12-29T10:12:27;7.60;;;1.80;;
65853;SDS011;52627;48.838;2.402;2023-12-29T10:20:50;6.50;;;1.40;;
65853;SDS011;52627;48.838;2.402;2023-12-29T10:23:32;10.90;;;2.10;;
65853;SDS011;52627;48.838;2.402;2023-12-29T10:26:05;6.20;;;1.50;;
65853;SDS011;52627;48.838;2.402;2023-12-29T10:28:32;8.80;;;2.20;;
65853;SDS011;52627;48.838;2.402;2023-12-29T10:30:59;10.00;;;1.80;;
65853;SDS011;52627;48.838;2.402;2023-12-29T10:33:26;7.60;;;1.80;;
65853;SDS011;52627;48.838;2.402;2023-12-29T10:36:00;10.20;;;2.00;;
65853;SDS011;52627;48.838;2.402;2023-12-29T10:38:33;12.70;;;1.50;;
65853;SDS011;52627;48.838;2.402;2023-12-29T10:41:13;10.80;;;1.80;;
65853;SDS011;52627;48.838;2.402;2023-12-29T10:43:43;8.90;;;1.80;;
65853;SDS011;52627;48.838;2.402;2023-12-29T10:46:11;5.60;;;1.40;;
65853;SDS011;52627;48.838;2.402;2023-12-29T10:48:38;10.50;;;1.70;;
65853;SDS011;52627;48.838;2.402;2023-12-29T10:51:06;10.20;;;1.50;;
65853;SDS011;52627;48.838;2.402;2023-12-29T10:53:33;10.60;;;1.80;;
65853;SDS011;52627;48.838;2.402;2023-12-29T10:56:16;8.10;;;2.10;;
65853;SDS011;52627;48.838;2.402;2023-12-29T11:01:27;6.80;;;2.30;;
65853;SDS011;52627;48.838;2.402;2023-12-29T11:04:06;8.50;;;1.90;;
65853;SDS011;52627;48.838;2.402;2023-12-29T11:09:07;7.30;;;1.50;;
65853;SDS011;52627;48.838;2.402;2023-12-29T11:11:36;8.70;;;1.60;;
65853;SDS011;52627;48.838;2.402;2023-12-29T11:14:04;8.90;;;2.30;;
65853;SDS011;52627;48.838;2.402;2023-12-29T11:16:31;9.70;;;2.00;;
65853;SDS011;52627;48.838;2.402;2023-12-29T11:18:58;10.90;;;1.90;;
65853;SDS011;52627;48.838;2.402;2023-12-29T11:21:26;12.10;;;2.10;;
65853;SDS011;52627;48.838;2.402;2023-12-29T11:23:54;8.00;;;1.80;;
65853;SDS011;52627;48.838;2.402;2023-12-29T11:26:21;6.50;;;1.80;;
65853;SDS011;52627;48.838;2.402;2023-12-29T11:28:49;9.50;;;2.10;;
65853;SDS011;52627;48.838;2.402;2023-12-29T11:31:17;10.70;;;2.40;;
65853;SDS011;52627;48.838;2.402;2023-12-29T11:34:04;11.20;;;2.40;;
65853;SDS011;52627;48.838;2.402;2023-12-29T11:36:38;8.70;;;1.60;;
65853;SDS011;52627;48.838;2.402;2023-12-29T11:39:40;9.70;;;1.80;;
65853;SDS011;52627;48.838;2.402;2023-12-29T11:42:33;8.30;;;2.10;;
65853;SDS011;52627;48.838;2.402;2023-12-29T11:45:30;11.90;;;2.00;;
65853;SDS011;52627;48.838;2.402;2023-12-29T11:48:02;6.80;;;1.30;;
65853;SDS011;52627;48.838;2.402;2023-12-29T11:50:33;8.10;;;1.80;;
65853;SDS011;52627;48.838;2.402;2023-12-29T11:53:08;7.10;;;1.40;;
65853;SDS011;52627;48.838;2.402;2023-12-29T11:55:37;7.20;;;1.50;;
65853;SDS011;52627;48.838;2.402;2023-12-29T11:58:23;8.50;;;1.80;;
65853;SDS011;52627;48.838;2.402;2023-12-29T12:00:52;8.30;;;1.70;;
65853;SDS011;52627;48.838;2.402;2023-12-29T12:03:25;8.10;;;1.80;;
65853;SDS011;52627;48.838;2.402;2023-12-29T12:05:54;5.60;;;1.90;;
65853;SDS011;52627;48.838;2.402;2023-12-29T12:08:34;6.10;;;1.40;;
65853;SDS011;52627;48.838;2.402;2023-12-29T12:14:02;8.30;;;1.40;;
65853;SDS011;52627;48.838;2.402;2023-12-29T12:19:12;9.70;;;1.80;;
65853;SDS011;52627;48.838;2.402;2023-12-29T12:21:40;6.40;;;1.50;;
65853;SDS011;52627;48.838;2.402;2023-12-29T12:24:07;8.30;;;1.50;;
65853;SDS011;52627;48.838;2.402;2023-12-29T12:26:34;9.90;;;1.80;;
65853;SDS011;52627;48.838;2.402;2023-12-29T12:29:01;9.00;;;1.40;;
65853;SDS011;52627;48.838;2.402;2023-12-29T12:31:28;9.00;;;2.00;;
65853;SDS011;52627;48.838;2.402;2023-12-29T12:33:58;6.30;;;1.60;;
65853;SDS011;52627;48.838;2.402;2023-12-29T12:36:29;6.50;;;1.90;;
65853;SDS011;52627;48.838;2.402;2023-12-29T12:38:57;8.20;;;1.70;;
65853;SDS011;52627;48.838;2.402;2023-12-29T12:41:25;9.80;;;2.30;;
65853;SDS011;52627;48.838;2.402;2023-12-29T12:44:13;10.00;;;2.00;;
65853;SDS011;52627;48.838;2.402;2023-12-29T12:49:14;9.70;;;2.10;;
65853;SDS011;52627;48.838;2.402;2023-12-29T12:51:42;8.80;;;2.60;;
65853;SDS011;52627;48.838;2.402;2023-12-29T12:54:10;10.80;;;2.70;;
65853;SDS011;52627;48.838;2.402;2023-12-29T12:56:41;8.80;;;2.00;;
65853;SDS011;52627;48.838;2.402;2023-12-29T12:59:09;7.60;;;2.00;;
65853;SDS011;52627;48.838;2.402;2023-12-29T13:01:37;10.60;;;2.10;;
65853;SDS011;52627;48.838;2.402;2023-12-29T13:04:05;7.00;;;1.70;;
65853;SDS011;52627;48.838;2.402;2023-12-29T13:06:33;11.20;;;2.90;;
65853;SDS011;52627;48.838;2.402;2023-12-29T13:09:03;11.40;;;2.20;;
65853;SDS011;52627;48.838;2.402;2023-12-29T13:11:33;10.00;;;3.80;;
65853;SDS011;52627;48.838;2.402;2023-12-29T13:14:00;9.60;;;4.20;;
65853;SDS011;52627;48.838;2.402;2023-12-29T13:16:33;10.50;;;3.40;;
65853;SDS011;52627;48.838;2.402;2023-12-29T13:19:15;7.20;;;2.80;;
65853;SDS011;52627;48.838;2.402;2023-12-29T13:21:48;8.80;;;2.60;;
65853;SDS011;52627;48.838;2.402;2023-12-29T13:24:17;5.90;;;2.10;;
65853;SDS011;52627;48.838;2.402;2023-12-29T13:26:45;8.70;;;2.30;;
65853;SDS011;52627;48.838;2.402;2023-12-29T13:29:14;5.70;;;1.90;;
65853;SDS011;52627;48.838;2.402;2023-12-29T13:31:41;6.50;;;2.20;;
65853;SDS011;52627;48.838;2.402;2023-12-29T13:34:14;10.90;;;2.60;;
65853;SDS011;52627;48.838;2.402;2023-12-29T13:36:50;13.60;;;2.90;;
65853;SDS011;52627;48.838;2.402;2023-12-29T13:39:31;10.80;;;3.70;;
65853;SDS011;52627;48.838;2.402;2023-12-29T13:42:16;11.20;;;4.50;;
65853;SDS011;52627;48.838;2.402;2023-12-29T13:44:44;15.00;;;5.40;;
65853;SDS011;52627;48.838;2.402;2023-12-29T13:47:12;9.90;;;3.90;;
65853;SDS011;52627;48.838;2.402;2023-12-29T13:49:40;10.90;;;3.10;;
65853;SDS011;52627;48.838;2.402;2023-12-29T13:52:06;15.10;;;4.40;;
65853;SDS011;52627;48.838;2.402;2023-12-29T13:54:43;10.50;;;4.00;;
65853;SDS011;52627;48.838;2.402;2023-12-29T13:57:10;14.30;;;4.80;;
65853;SDS011;52627;48.838;2.402;2023-12-29T13:59:38;9.80;;;4.00;;
65853;SDS011;52627;48.838;2.402;2023-12-29T14:02:31;18.50;;;6.40;;
65853;SDS011;52627;48.838;2.402;2023-12-29T14:10:30;13.40;;;3.50;;
65853;SDS011;52627;48.838;2.402;2023-12-29T14:13:07;10.60;;;2.50;;
65853;SDS011;52627;48.838;2.402;2023-12-29T14:15:36;9.00;;;2.60;;
65853;SDS011;52627;48.838;2.402;2023-12-29T14:18:15;10.90;;;1.90;;
65853;SDS011;52627;48.838;2.402;2023-12-29T14:20:48;13.10;;;2.50;;
65853;SDS011;52627;48.838;2.402;2023-12-29T14:23:17;7.70;;;2.00;;
65853;SDS011;52627;48.838;2.402;2023-12-29T14:25:45;10.40;;;1.80;;
65853;SDS011;52627;48.838;2.402;2023-12-29T14:28:15;11.90;;;2.40;;
65853;SDS011;52627;48.838;2.402;2023-12-29T14:30:43;7.50;;;1.80;;
65853;SDS011;52627;48.838;2.402;2023-12-29T14:33:11;14.10;;;2.00;;
65853;SDS011;52627;48.838;2.402;2023-12-29T14:35:39;7.60;;;1.80;;
65853;SDS011;52627;48.838;2.402;2023-12-29T14:38:06;8.10;;;2.10;;
65853;SDS011;52627;48.838;2.402;2023-12-29T14:40:33;9.50;;;1.80;;
65853;SDS011;52627;48.838;2.402;2023-12-29T14:43:02;6.30;;;2.20;;
65853;SDS011;52627;48.838;2.402;2023-12-29T14:45:29;7.40;;;1.80;;
65853;SDS011;52627;48.838;2.402;2023-12-29T14:47:58;8.60;;;2.00;;
65853;SDS011;52627;48.838;2.402;2023-12-29T14:50:25;9.70;;;2.20;;
65853;SDS011;52627;48.838;2.402;2023-12-29T14:52:52;8.90;;;1.90;;
65853;SDS011;52627;48.838;2.402;2023-12-29T14:55:19;6.00;;;1.80;;
65853;SDS011;52627;48.838;2.402;2023-12-29T14:57:47;7.10;;;1.70;;
65853;SDS011;52627;48.838;2.402;2023-12-29T15:00:14;6.90;;;1.80;;
65853;SDS011;52627;48.838;2.402;2023-12-29T15:02:42;7.30;;;2.10;;
65853;SDS011;52627;48.838;2.402;2023-12-29T15:05:10;7.20;;;1.90;;
65853;SDS011;52627;48.838;2.402;2023-12-29T15:07:37;7.30;;;2.10;;
65853;SDS011;52627;48.838;2.402;2023-12-29T15:10:04;6.40;;;2.00;;
65853;SDS011;52627;48.838;2.402;2023-12-29T15:12:31;11.10;;;2.20;;
65853;SDS011;52627;48.838;2.402;2023-12-29T15:14:58;11.10;;;2.70;;
65853;SDS011;52627;48.838;2.402;2023-12-29T15:17:24;9.60;;;2.90;;
65853;SDS011;52627;48.838;2.402;2023-12-29T15:19:51;11.00;;;2.30;;